sensor_id;sensor_type;location;lat;lon;timestamp;pressure;altitude;pressure_sealevel;temperature;humidity
45525;BME280;31437;58.350;13.828;2022-07-29T00:00:54;100443.59;;;10.24;100.00
45525;BME280;31437;58.350;13.828;2022-07-29T00:03:19;100447.16;;;10.23;100.00
45525;BME280;31437;58.350;13.828;2022-07-29T00:05:45;100447.16;;;10.23;100.00
45525;BME280;31437;58.350;13.828;2022-07-29T00:08:10;100444.53;;;10.23;100.00
45525;BME280;31437;58.350;13.828;2022-07-29T00:10:35;100453.28;;;10.22;100.00
45525;BME280;31437;58.350;13.828;2022-07-29T00:13:01;100442.91;;;10.21;100.00
45525;BME280;31437;58.350;13.828;2022-07-29T00:15:26;100442.13;;;10.19;100.00
45525;BME280;31437;58.350;13.828;2022-07-29T00:17:51;100449.13;;;10.18;100.00
45525;BME280;31437;58.350;13.828;2022-07-29T00:20:17;100449.34;;;10.14;100.00
45525;BME280;31437;58.350;13.828;2022-07-29T00:22:42;100448.72;;;10.09;100.00
45525;BME280;31437;58.350;13.828;2022-07-29T00:25:07;100444.84;;;9.98;100.00
45525;BME280;31437;58.350;13.828;2022-07-29T00:27:33;100442.66;;;9.89;100.00
45525;BME280;31437;58.350;13.828;2022-07-29T00:29:59;100450.16;;;9.78;100.00
45525;BME280;31437;58.350;13.828;2022-07-29T00:32:24;100453.22;;;9.69;100.00
45525;BME280;31437;58.350;13.828;2022-07-29T00:34:49;100451.88;;;9.60;100.00
45525;BME280;31437;58.350;13.828;2022-07-29T00:37:33;100455.47;;;9.58;100.00
45525;BME280;31437;58.350;13.828;2022-07-29T00:39:58;100455.81;;;9.50;100.00
45525;BME280;31437;58.350;13.828;2022-07-29T00:42:23;100463.94;;;9.44;100.00
45525;BME280;31437;58.350;13.828;2022-07-29T00:44:49;100456.38;;;9.38;100.00
45525;BME280;31437;58.350;13.828;2022-07-29T00:47:14;100466.16;;;9.34;100.00
45525;BME280;31437;58.350;13.828;2022-07-29T00:49:40;100468.09;;;9.29;100.00
45525;BME280;31437;58.350;13.828;2022-07-29T00:52:06;100474.47;;;9.23;100.00
45525;BME280;31437;58.350;13.828;2022-07-29T00:54:32;100479.91;;;9.19;100.00
45525;BME280;31437;58.350;13.828;2022-07-29T00:56:58;100478.59;;;9.08;100.00
45525;BME280;31437;58.350;13.828;2022-07-29T00:59:23;100481.56;;;9.01;100.00
45525;BME280;31437;58.350;13.828;2022-07-29T01:01:48;100487.09;;;8.93;100.00
45525;BME280;31437;58.350;13.828;2022-07-29T01:04:14;100489.94;;;8.89;100.00
45525;BME280;31437;58.350;13.828;2022-07-29T01:06:39;100487.38;;;8.87;100.00
45525;BME280;31437;58.350;13.828;2022-07-29T01:09:04;100489.16;;;8.86;100.00
45525;BME280;31437;58.350;13.828;2022-07-29T01:11:30;100511.84;;;8.86;100.00
45525;BME280;31437;58.350;13.828;2022-07-29T01:13:56;100512.22;;;8.77;100.00
45525;BME280;31437;58.350;13.828;2022-07-29T01:16:24;100521.34;;;8.67;100.00
45525;BME280;31437;58.350;13.828;2022-07-29T01:18:51;100524.31;;;8.59;100.00
45525;BME280;31437;58.350;13.828;2022-07-29T01:23:59;100525.69;;;8.46;100.00
45525;BME280;31437;58.350;13.828;2022-07-29T01:26:33;100526.75;;;8.41;100.00
45525;BME280;31437;58.350;13.828;2022-07-29T01:29:01;100530.13;;;8.44;100.00
45525;BME280;31437;58.350;13.828;2022-07-29T01:31:28;100525.75;;;8.44;100.00
45525;BME280;31437;58.350;13.828;2022-07-29T01:34:01;100524.13;;;8.41;100.00
45525;BME280;31437;58.350;13.828;2022-07-29T01:36:30;100531.25;;;8.36;100.00
45525;BME280;31437;58.350;13.828;2022-07-29T01:39:02;100534.25;;;8.27;100.00
45525;BME280;31437;58.350;13.828;2022-07-29T01:41:29;100537.25;;;8.16;100.00
45525;BME280;31437;58.350;13.828;2022-07-29T01:43:57;100540.09;;;8.10;100.00
45525;BME280;31437;58.350;13.828;2022-07-29T01:46:25;100541.16;;;8.06;100.00
45525;BME280;31437;58.350;13.828;2022-07-29T01:48:57;100538.41;;;8.09;100.00
45525;BME280;31437;58.350;13.828;2022-07-29T01:54:12;100541.50;;;8.19;100.00
45525;BME280;31437;58.350;13.828;2022-07-29T01:56:38;100540.34;;;8.26;100.00
45525;BME280;31437;58.350;13.828;2022-07-29T01:59:04;100535.69;;;8.34;100.00
45525;BME280;31437;58.350;13.828;2022-07-29T02:01:32;100541.44;;;8.44;100.00
45525;BME280;31437;58.350;13.828;2022-07-29T02:03:58;100541.09;;;8.53;100.00
45525;BME280;31437;58.350;13.828;2022-07-29T02:06:24;100539.75;;;8.65;100.00
45525;BME280;31437;58.350;13.828;2022-07-29T02:08:51;100545.31;;;8.78;100.00
45525;BME280;31437;58.350;13.828;2022-07-29T02:11:17;100537.09;;;8.87;100.00
45525;BME280;31437;58.350;13.828;2022-07-29T02:13:43;100545.53;;;8.94;100.00
45525;BME280;31437;58.350;13.828;2022-07-29T02:16:09;100543.69;;;8.96;100.00
45525;BME280;31437;58.350;13.828;2022-07-29T02:18:36;100538.63;;;8.91;100.00
45525;BME280;31437;58.350;13.828;2022-07-29T02:21:02;100537.88;;;8.89;100.00
45525;BME280;31437;58.350;13.828;2022-07-29T02:23:28;100543.25;;;8.86;100.00
45525;BME280;31437;58.350;13.828;2022-07-29T02:25:56;100533.94;;;8.79;100.00
45525;BME280;31437;58.350;13.828;2022-07-29T02:28:25;100539.41;;;8.73;100.00
45525;BME280;31437;58.350;13.828;2022-07-29T02:30:52;100543.13;;;8.67;100.00
45525;BME280;31437;58.350;13.828;2022-07-29T02:33:18;100539.91;;;8.60;100.00
45525;BME280;31437;58.350;13.828;2022-07-29T02:35:45;100542.78;;;8.54;100.00
45525;BME280;31437;58.350;13.828;2022-07-29T02:38:12;100542.06;;;8.51;100.00
45525;BME280;31437;58.350;13.828;2022-07-29T02:40:56;100535.91;;;8.52;100.00
45525;BME280;31437;58.350;13.828;2022-07-29T02:43:23;100546.25;;;8.55;100.00
45525;BME280;31437;58.350;13.828;2022-07-29T02:45:51;100546.19;;;8.56;100.00
45525;BME280;31437;58.350;13.828;2022-07-29T02:48:16;100548.72;;;8.58;100.00
45525;BME280;31437;58.350;13.828;2022-07-29T02:50:48;100552.03;;;8.63;100.00
45525;BME280;31437;58.350;13.828;2022-07-29T02:53:18;100544.91;;;8.67;100.00
45525;BME280;31437;58.350;13.828;2022-07-29T02:58:21;100558.22;;;8.60;100.00
45525;BME280;31437;58.350;13.828;2022-07-29T03:00:51;100561.22;;;8.51;100.00
45525;BME280;31437;58.350;13.828;2022-07-29T03:03:18;100566.56;;;8.48;100.00
45525;BME280;31437;58.350;13.828;2022-07-29T03:05:43;100567.53;;;8.46;100.00
45525;BME280;31437;58.350;13.828;2022-07-29T03:08:11;100574.56;;;8.44;100.00
45525;BME280;31437;58.350;13.828;2022-07-29T03:10:37;100572.06;;;8.40;100.00
45525;BME280;31437;58.350;13.828;2022-07-29T03:13:03;100576.47;;;8.40;100.00
45525;BME280;31437;58.350;13.828;2022-07-29T03:15:30;100579.91;;;8.40;100.00
45525;BME280;31437;58.350;13.828;2022-07-29T03:17:55;100579.03;;;8.41;100.00
45525;BME280;31437;58.350;13.828;2022-07-29T03:20:21;100588.59;;;8.41;100.00
45525;BME280;31437;58.350;13.828;2022-07-29T03:22:46;100590.34;;;8.42;100.00
45525;BME280;31437;58.350;13.828;2022-07-29T03:25:12;100593.72;;;8.44;100.00
45525;BME280;31437;58.350;13.828;2022-07-29T03:27:38;100595.38;;;8.47;100.00
45525;BME280;31437;58.350;13.828;2022-07-29T03:30:04;100597.09;;;8.48;100.00
45525;BME280;31437;58.350;13.828;2022-07-29T03:32:30;100600.34;;;8.53;100.00
45525;BME280;31437;58.350;13.828;2022-07-29T03:34:55;100603.72;;;8.56;100.00
45525;BME280;31437;58.350;13.828;2022-07-29T03:37:20;100615.72;;;8.62;100.00
45525;BME280;31437;58.350;13.828;2022-07-29T03:39:46;100607.63;;;8.68;100.00
45525;BME280;31437;58.350;13.828;2022-07-29T03:42:13;100609.00;;;8.77;100.00
45525;BME280;31437;58.350;13.828;2022-07-29T03:44:41;100612.91;;;8.89;100.00
45525;BME280;31437;58.350;13.828;2022-07-29T03:47:08;100617.63;;;9.01;100.00
45525;BME280;31437;58.350;13.828;2022-07-29T03:49:34;100617.00;;;9.16;100.00
45525;BME280;31437;58.350;13.828;2022-07-29T03:52:00;100621.53;;;9.33;100.00
45525;BME280;31437;58.350;13.828;2022-07-29T03:54:26;100625.19;;;9.49;100.00
45525;BME280;31437;58.350;13.828;2022-07-29T03:56:51;100628.50;;;9.73;100.00
45525;BME280;31437;58.350;13.828;2022-07-29T03:59:18;100632.97;;;10.11;100.00
45525;BME280;31437;58.350;13.828;2022-07-29T04:01:44;100628.97;;;10.60;100.00
45525;BME280;31437;58.350;13.828;2022-07-29T04:04:10;100632.34;;;11.00;100.00
45525;BME280;31437;58.350;13.828;2022-07-29T04:06:37;100631.91;;;11.27;100.00
45525;BME280;31437;58.350;13.828;2022-07-29T04:09:02;100637.59;;;11.52;100.00
45525;BME280;31437;58.350;13.828;2022-07-29T04:11:28;100641.00;;;11.72;100.00
45525;BME280;31437;58.350;13.828;2022-07-29T04:13:53;100643.63;;;11.89;100.00
45525;BME280;31437;58.350;13.828;2022-07-29T04:16:18;100635.69;;;12.07;100.00
45525;BME280;31437;58.350;13.828;2022-07-29T04:18:44;100635.31;;;12.30;100.00
45525;BME280;31437;58.350;13.828;2022-07-29T04:21:09;100633.78;;;12.58;100.00
45525;BME280;31437;58.350;13.828;2022-07-29T04:23:34;100632.53;;;13.11;100.00
45525;BME280;31437;58.350;13.828;2022-07-29T04:25:59;100627.91;;;14.32;100.00
45525;BME280;31437;58.350;13.828;2022-07-29T04:28:26;100623.81;;;15.24;100.00
45525;BME280;31437;58.350;13.828;2022-07-29T04:30:51;100621.53;;;16.08;100.00
45525;BME280;31437;58.350;13.828;2022-07-29T04:33:16;100612.38;;;16.75;100.00
45525;BME280;31437;58.350;13.828;2022-07-29T04:35:42;100586.53;;;17.60;100.00
45525;BME280;31437;58.350;13.828;2022-07-29T04:38:07;100570.94;;;18.57;100.00
45525;BME280;31437;58.350;13.828;2022-07-29T04:40:33;100554.41;;;19.39;100.00
45525;BME280;31437;58.350;13.828;2022-07-29T04:42:59;100529.41;;;20.12;100.00
45525;BME280;31437;58.350;13.828;2022-07-29T04:45:24;100500.88;;;20.73;100.00
45525;BME280;31437;58.350;13.828;2022-07-29T04:47:50;100471.34;;;21.13;100.00
45525;BME280;31437;58.350;13.828;2022-07-29T04:50:15;100452.03;;;21.76;100.00
45525;BME280;31437;58.350;13.828;2022-07-29T04:52:41;100418.56;;;21.99;100.00
45525;BME280;31437;58.350;13.828;2022-07-29T04:55:06;100422.34;;;21.79;100.00
45525;BME280;31437;58.350;13.828;2022-07-29T04:57:32;100421.94;;;21.56;100.00
45525;BME280;31437;58.350;13.828;2022-07-29T04:59:57;100426.44;;;21.18;100.00
45525;BME280;31437;58.350;13.828;2022-07-29T05:02:23;100414.88;;;21.18;100.00
45525;BME280;31437;58.350;13.828;2022-07-29T05:04:48;100435.63;;;21.33;100.00
45525;BME280;31437;58.350;13.828;2022-07-29T05:07:13;100428.13;;;21.09;100.00
45525;BME280;31437;58.350;13.828;2022-07-29T05:09:39;100436.09;;;20.62;100.00
45525;BME280;31437;58.350;13.828;2022-07-29T05:12:04;100433.66;;;20.89;100.00
45525;BME280;31437;58.350;13.828;2022-07-29T05:14:30;100431.56;;;20.92;100.00
45525;BME280;31437;58.350;13.828;2022-07-29T05:16:55;100430.16;;;20.49;100.00
45525;BME280;31437;58.350;13.828;2022-07-29T05:19:22;100434.66;;;20.78;100.00
45525;BME280;31437;58.350;13.828;2022-07-29T05:21:47;100431.97;;;21.35;100.00
45525;BME280;31437;58.350;13.828;2022-07-29T05:24:13;100412.09;;;22.02;100.00
45525;BME280;31437;58.350;13.828;2022-07-29T05:26:38;100408.03;;;22.70;100.00
45525;BME280;31437;58.350;13.828;2022-07-29T05:29:03;100410.56;;;23.66;100.00
45525;BME280;31437;58.350;13.828;2022-07-29T05:31:29;100396.47;;;24.06;100.00
45525;BME280;31437;58.350;13.828;2022-07-29T05:33:54;100401.03;;;24.71;100.00
45525;BME280;31437;58.350;13.828;2022-07-29T05:36:19;100396.09;;;24.99;100.00
45525;BME280;31437;58.350;13.828;2022-07-29T05:38:45;100393.75;;;25.04;100.00
45525;BME280;31437;58.350;13.828;2022-07-29T05:41:10;100402.78;;;25.11;100.00
45525;BME280;31437;58.350;13.828;2022-07-29T05:43:35;100401.19;;;24.86;100.00
45525;BME280;31437;58.350;13.828;2022-07-29T05:46:01;100396.59;;;25.03;100.00
45525;BME280;31437;58.350;13.828;2022-07-29T05:48:26;100397.38;;;25.36;100.00
45525;BME280;31437;58.350;13.828;2022-07-29T05:50:51;100399.72;;;25.39;100.00
45525;BME280;31437;58.350;13.828;2022-07-29T05:53:17;100398.06;;;25.61;100.00
45525;BME280;31437;58.350;13.828;2022-07-29T05:55:42;100392.13;;;26.05;100.00
45525;BME280;31437;58.350;13.828;2022-07-29T05:58:08;100391.31;;;26.50;100.00
45525;BME280;31437;58.350;13.828;2022-07-29T06:00:33;100390.72;;;26.78;100.00
45525;BME280;31437;58.350;13.828;2022-07-29T06:02:59;100395.69;;;27.19;100.00
45525;BME280;31437;58.350;13.828;2022-07-29T06:05:24;100393.97;;;27.62;100.00
45525;BME280;31437;58.350;13.828;2022-07-29T06:07:49;100399.03;;;28.08;100.00
45525;BME280;31437;58.350;13.828;2022-07-29T06:10:15;100391.56;;;28.32;100.00
45525;BME280;31437;58.350;13.828;2022-07-29T06:12:40;100396.84;;;28.40;100.00
45525;BME280;31437;58.350;13.828;2022-07-29T06:15:05;100393.78;;;28.43;100.00
45525;BME280;31437;58.350;13.828;2022-07-29T06:17:31;100392.03;;;28.57;100.00
45525;BME280;31437;58.350;13.828;2022-07-29T06:19:56;100390.97;;;28.30;100.00
45525;BME280;31437;58.350;13.828;2022-07-29T06:22:23;100392.44;;;28.54;100.00
45525;BME280;31437;58.350;13.828;2022-07-29T06:24:49;100389.94;;;28.81;100.00
45525;BME280;31437;58.350;13.828;2022-07-29T06:27:14;100394.88;;;28.77;100.00
45525;BME280;31437;58.350;13.828;2022-07-29T06:29:40;100393.59;;;28.73;100.00
45525;BME280;31437;58.350;13.828;2022-07-29T06:32:05;100407.59;;;28.12;100.00
45525;BME280;31437;58.350;13.828;2022-07-29T06:34:30;100396.50;;;27.71;100.00
45525;BME280;31437;58.350;13.828;2022-07-29T06:36:56;100399.09;;;27.43;100.00
45525;BME280;31437;58.350;13.828;2022-07-29T06:39:21;100401.44;;;27.31;100.00
45525;BME280;31437;58.350;13.828;2022-07-29T06:41:50;100397.13;;;27.07;100.00
45525;BME280;31437;58.350;13.828;2022-07-29T06:44:16;100404.47;;;26.98;100.00
45525;BME280;31437;58.350;13.828;2022-07-29T06:46:41;100394.88;;;26.66;100.00
45525;BME280;31437;58.350;13.828;2022-07-29T06:49:06;100400.16;;;26.59;98.68
45525;BME280;31437;58.350;13.828;2022-07-29T06:51:32;100399.25;;;27.11;100.00
45525;BME280;31437;58.350;13.828;2022-07-29T06:53:57;100392.84;;;27.57;96.75
45525;BME280;31437;58.350;13.828;2022-07-29T06:56:23;100400.84;;;28.01;96.87
45525;BME280;31437;58.350;13.828;2022-07-29T06:58:48;100396.91;;;28.25;95.37
45525;BME280;31437;58.350;13.828;2022-07-29T07:01:14;100393.84;;;28.28;92.41
45525;BME280;31437;58.350;13.828;2022-07-29T07:03:39;100389.66;;;28.26;89.02
45525;BME280;31437;58.350;13.828;2022-07-29T07:06:05;100388.34;;;28.15;86.81
45525;BME280;31437;58.350;13.828;2022-07-29T07:08:30;100397.13;;;28.24;86.75
45525;BME280;31437;58.350;13.828;2022-07-29T07:10:55;100397.19;;;28.30;84.60
45525;BME280;31437;58.350;13.828;2022-07-29T07:13:21;100395.66;;;28.21;81.85
45525;BME280;31437;58.350;13.828;2022-07-29T07:15:47;100394.97;;;28.41;81.60
45525;BME280;31437;58.350;13.828;2022-07-29T07:18:13;100400.34;;;28.13;78.44
45525;BME280;31437;58.350;13.828;2022-07-29T07:20:39;100397.13;;;28.24;78.68
45525;BME280;31437;58.350;13.828;2022-07-29T07:23:04;100393.66;;;28.30;79.24
45525;BME280;31437;58.350;13.828;2022-07-29T07:25:29;100395.38;;;28.16;77.87
45525;BME280;31437;58.350;13.828;2022-07-29T07:27:55;100396.09;;;28.25;79.05
45525;BME280;31437;58.350;13.828;2022-07-29T07:30:20;100398.88;;;28.38;77.44
45525;BME280;31437;58.350;13.828;2022-07-29T07:32:45;100396.97;;;28.32;75.84
45525;BME280;31437;58.350;13.828;2022-07-29T07:35:11;100388.25;;;28.30;73.26
45525;BME280;31437;58.350;13.828;2022-07-29T07:37:37;100389.22;;;28.22;72.36
45525;BME280;31437;58.350;13.828;2022-07-29T07:40:03;100398.91;;;27.95;70.71
45525;BME280;31437;58.350;13.828;2022-07-29T07:42:28;100402.69;;;28.01;71.04
45525;BME280;31437;58.350;13.828;2022-07-29T07:44:54;100401.53;;;27.89;69.09
45525;BME280;31437;58.350;13.828;2022-07-29T07:47:19;100406.41;;;27.63;67.63
45525;BME280;31437;58.350;13.828;2022-07-29T07:49:47;100400.56;;;27.60;69.93
45525;BME280;31437;58.350;13.828;2022-07-29T07:52:13;100401.66;;;27.66;69.02
45525;BME280;31437;58.350;13.828;2022-07-29T07:54:38;100409.75;;;27.80;68.35
45525;BME280;31437;58.350;13.828;2022-07-29T07:57:03;100401.50;;;27.08;65.42
45525;BME280;31437;58.350;13.828;2022-07-29T07:59:29;100405.69;;;26.35;64.91
45525;BME280;31437;58.350;13.828;2022-07-29T08:01:54;100404.06;;;26.02;64.64
45525;BME280;31437;58.350;13.828;2022-07-29T08:04:19;100401.88;;;25.83;66.01
45525;BME280;31437;58.350;13.828;2022-07-29T08:06:45;100396.41;;;25.91;66.07
45525;BME280;31437;58.350;13.828;2022-07-29T08:09:10;100401.03;;;26.28;68.73
45525;BME280;31437;58.350;13.828;2022-07-29T08:11:35;100408.44;;;26.49;68.02
45525;BME280;31437;58.350;13.828;2022-07-29T08:14:01;100410.47;;;26.85;68.27
45525;BME280;31437;58.350;13.828;2022-07-29T08:16:26;100407.16;;;26.98;70.91
45525;BME280;31437;58.350;13.828;2022-07-29T08:18:52;100408.09;;;27.35;68.61
45525;BME280;31437;58.350;13.828;2022-07-29T08:21:21;100404.72;;;27.62;68.02
45525;BME280;31437;58.350;13.828;2022-07-29T08:23:47;100405.25;;;27.73;67.43
45525;BME280;31437;58.350;13.828;2022-07-29T08:26:15;100402.28;;;27.68;66.62
45525;BME280;31437;58.350;13.828;2022-07-29T08:28:42;100405.63;;;27.18;64.63
45525;BME280;31437;58.350;13.828;2022-07-29T08:31:10;100402.13;;;27.54;66.67
45525;BME280;31437;58.350;13.828;2022-07-29T08:33:36;100405.63;;;27.84;67.55
45525;BME280;31437;58.350;13.828;2022-07-29T08:36:01;100400.88;;;27.87;66.39
45525;BME280;31437;58.350;13.828;2022-07-29T08:38:27;100406.13;;;27.44;64.28
45525;BME280;31437;58.350;13.828;2022-07-29T08:40:52;100407.59;;;26.72;62.60
45525;BME280;31437;58.350;13.828;2022-07-29T08:43:18;100402.22;;;26.26;62.03
45525;BME280;31437;58.350;13.828;2022-07-29T08:45:50;100397.41;;;26.44;64.90
45525;BME280;31437;58.350;13.828;2022-07-29T08:48:16;100397.84;;;26.71;65.93
45525;BME280;31437;58.350;13.828;2022-07-29T08:50:43;100399.13;;;26.60;65.21
45525;BME280;31437;58.350;13.828;2022-07-29T08:53:13;100397.38;;;26.82;65.29
45525;BME280;31437;58.350;13.828;2022-07-29T08:55:56;100396.00;;;26.86;62.95
45525;BME280;31437;58.350;13.828;2022-07-29T08:58:22;100394.31;;;26.70;62.16
45525;BME280;31437;58.350;13.828;2022-07-29T09:00:55;100398.25;;;26.83;63.06
45525;BME280;31437;58.350;13.828;2022-07-29T09:03:22;100396.41;;;27.13;62.60
45525;BME280;31437;58.350;13.828;2022-07-29T09:05:48;100402.47;;;27.15;64.01
45525;BME280;31437;58.350;13.828;2022-07-29T09:08:14;100401.88;;;27.49;63.32
45525;BME280;31437;58.350;13.828;2022-07-29T09:10:39;100402.97;;;27.55;61.80
45525;BME280;31437;58.350;13.828;2022-07-29T09:13:05;100398.25;;;27.57;60.15
45525;BME280;31437;58.350;13.828;2022-07-29T09:15:30;100399.56;;;27.31;58.83
45525;BME280;31437;58.350;13.828;2022-07-29T09:17:56;100399.53;;;26.87;58.07
45525;BME280;31437;58.350;13.828;2022-07-29T09:20:23;100395.53;;;26.45;57.97
45525;BME280;31437;58.350;13.828;2022-07-29T09:22:49;100392.66;;;26.23;59.47
45525;BME280;31437;58.350;13.828;2022-07-29T09:28:19;100395.84;;;25.73;59.69
45525;BME280;31437;58.350;13.828;2022-07-29T09:30:51;100395.50;;;25.45;60.42
45525;BME280;31437;58.350;13.828;2022-07-29T09:33:17;100391.19;;;25.11;59.54
45525;BME280;31437;58.350;13.828;2022-07-29T09:35:42;100384.19;;;25.18;61.58
45525;BME280;31437;58.350;13.828;2022-07-29T09:38:11;100382.97;;;25.21;61.91
45525;BME280;31437;58.350;13.828;2022-07-29T09:40:36;100382.66;;;25.07;60.73
45525;BME280;31437;58.350;13.828;2022-07-29T09:43:09;100384.53;;;24.99;60.17
45525;BME280;31437;58.350;13.828;2022-07-29T09:45:34;100387.59;;;25.43;61.08
45525;BME280;31437;58.350;13.828;2022-07-29T09:48:12;100389.75;;;25.79;61.90
45525;BME280;31437;58.350;13.828;2022-07-29T09:50:38;100383.41;;;26.03;61.13
45525;BME280;31437;58.350;13.828;2022-07-29T09:53:04;100388.78;;;26.26;61.88
45525;BME280;31437;58.350;13.828;2022-07-29T09:55:30;100380.22;;;26.45;60.76
45525;BME280;31437;58.350;13.828;2022-07-29T09:58:02;100385.00;;;26.58;61.44
45525;BME280;31437;58.350;13.828;2022-07-29T10:00:41;100379.22;;;26.84;63.36
45525;BME280;31437;58.350;13.828;2022-07-29T10:03:07;100383.47;;;26.93;63.09
45525;BME280;31437;58.350;13.828;2022-07-29T10:05:32;100385.78;;;26.82;61.15
45525;BME280;31437;58.350;13.828;2022-07-29T10:07:57;100383.47;;;26.79;59.82
45525;BME280;31437;58.350;13.828;2022-07-29T10:12:49;100385.66;;;26.60;60.01
45525;BME280;31437;58.350;13.828;2022-07-29T10:15:15;100374.84;;;26.45;59.76
45525;BME280;31437;58.350;13.828;2022-07-29T10:17:40;100372.63;;;25.80;58.55
45525;BME280;31437;58.350;13.828;2022-07-29T10:20:06;100375.25;;;25.65;59.43
45525;BME280;31437;58.350;13.828;2022-07-29T10:22:33;100368.88;;;25.97;61.21
45525;BME280;31437;58.350;13.828;2022-07-29T10:24:58;100371.47;;;26.28;61.23
45525;BME280;31437;58.350;13.828;2022-07-29T10:27:25;100373.22;;;25.98;59.42
45525;BME280;31437;58.350;13.828;2022-07-29T10:29:53;100369.19;;;25.32;58.21
45525;BME280;31437;58.350;13.828;2022-07-29T10:32:26;100369.56;;;25.21;59.64
45525;BME280;31437;58.350;13.828;2022-07-29T10:43:33;100363.97;;;24.01;60.71
45525;BME280;31437;58.350;13.828;2022-07-29T10:46:02;100358.91;;;23.82;61.21
45525;BME280;31437;58.350;13.828;2022-07-29T10:48:28;100366.91;;;23.65;61.92
45525;BME280;31437;58.350;13.828;2022-07-29T10:51:01;100363.28;;;23.40;64.00
45525;BME280;31437;58.350;13.828;2022-07-29T10:53:48;100358.09;;;23.30;66.35
45525;BME280;31437;58.350;13.828;2022-07-29T10:56:24;100363.72;;;23.19;71.04
45525;BME280;31437;58.350;13.828;2022-07-29T11:01:59;100357.25;;;22.96;72.69
45525;BME280;31437;58.350;13.828;2022-07-29T11:05:11;100360.03;;;22.94;74.29
45525;BME280;31437;58.350;13.828;2022-07-29T11:07:12;100371.81;;;23.01;76.53
45525;BME280;31437;58.350;13.828;2022-07-29T11:09:37;100371.13;;;22.99;77.78
45525;BME280;31437;58.350;13.828;2022-07-29T11:12:46;100369.25;;;22.92;79.28
45525;BME280;31437;58.350;13.828;2022-07-29T11:17:21;100367.22;;;22.94;82.31
45525;BME280;31437;58.350;13.828;2022-07-29T11:19:46;100372.91;;;22.90;83.73
45525;BME280;31437;58.350;13.828;2022-07-29T11:22:12;100367.19;;;22.85;82.45
45525;BME280;31437;58.350;13.828;2022-07-29T11:25:14;100367.47;;;22.74;82.44
45525;BME280;31437;58.350;13.828;2022-07-29T11:27:40;100365.03;;;22.63;82.89
45525;BME280;31437;58.350;13.828;2022-07-29T11:30:06;100368.19;;;22.58;85.48
45525;BME280;31437;58.350;13.828;2022-07-29T11:32:41;100364.88;;;22.64;87.71
45525;BME280;31437;58.350;13.828;2022-07-29T11:35:20;100369.91;;;22.67;87.06
45525;BME280;31437;58.350;13.828;2022-07-29T11:38:23;100363.59;;;22.68;86.60
45525;BME280;31437;58.350;13.828;2022-07-29T11:40:32;100367.47;;;22.74;91.78
45525;BME280;31437;58.350;13.828;2022-07-29T11:42:59;100362.69;;;22.86;91.29
45525;BME280;31437;58.350;13.828;2022-07-29T11:45:26;100365.88;;;22.89;91.13
45525;BME280;31437;58.350;13.828;2022-07-29T11:47:57;100362.28;;;22.99;92.26
45525;BME280;31437;58.350;13.828;2022-07-29T11:50:29;100358.00;;;23.14;93.45
45525;BME280;31437;58.350;13.828;2022-07-29T11:53:01;100354.94;;;23.43;95.87
45525;BME280;31437;58.350;13.828;2022-07-29T11:55:28;100348.88;;;23.84;95.87
45525;BME280;31437;58.350;13.828;2022-07-29T11:57:54;100347.91;;;24.09;92.82
45525;BME280;31437;58.350;13.828;2022-07-29T12:00:41;100342.53;;;24.34;90.54
45525;BME280;31437;58.350;13.828;2022-07-29T12:03:08;100344.03;;;24.61;90.97
45525;BME280;31437;58.350;13.828;2022-07-29T12:05:36;100351.59;;;24.65;85.12
45525;BME280;31437;58.350;13.828;2022-07-29T12:08:10;100353.28;;;24.34;81.87
45525;BME280;31437;58.350;13.828;2022-07-29T12:10:38;100352.44;;;24.41;80.66
45525;BME280;31437;58.350;13.828;2022-07-29T12:19:24;100342.19;;;24.61;77.48
45525;BME280;31437;58.350;13.828;2022-07-29T12:21:51;100341.03;;;24.64;77.95
45525;BME280;31437;58.350;13.828;2022-07-29T12:24:17;100345.38;;;24.40;74.88
45525;BME280;31437;58.350;13.828;2022-07-29T12:26:54;100346.72;;;24.28;74.88
45525;BME280;31437;58.350;13.828;2022-07-29T12:29:20;100353.44;;;24.08;74.49
45525;BME280;31437;58.350;13.828;2022-07-29T12:31:46;100351.75;;;23.98;73.99
45525;BME280;31437;58.350;13.828;2022-07-29T12:34:18;100351.38;;;23.85;75.31
45525;BME280;31437;58.350;13.828;2022-07-29T12:36:45;100350.38;;;23.78;77.06
45525;BME280;31437;58.350;13.828;2022-07-29T12:39:10;100354.81;;;23.61;77.35
45525;BME280;31437;58.350;13.828;2022-07-29T12:41:36;100359.59;;;23.33;76.37
45525;BME280;31437;58.350;13.828;2022-07-29T12:44:04;100353.44;;;22.98;77.21
45525;BME280;31437;58.350;13.828;2022-07-29T12:46:31;100359.50;;;22.56;79.97
45525;BME280;31437;58.350;13.828;2022-07-29T12:49:07;100351.44;;;22.30;81.87
45525;BME280;31437;58.350;13.828;2022-07-29T12:51:33;100353.09;;;22.13;81.77
45525;BME280;31437;58.350;13.828;2022-07-29T12:54:09;100347.91;;;22.12;84.55
45525;BME280;31437;58.350;13.828;2022-07-29T12:56:39;100340.19;;;22.09;84.41
45525;BME280;31437;58.350;13.828;2022-07-29T12:59:20;100348.22;;;22.09;84.90
45525;BME280;31437;58.350;13.828;2022-07-29T13:01:47;100344.69;;;22.08;86.17
45525;BME280;31437;58.350;13.828;2022-07-29T13:06:57;100335.78;;;21.99;91.18
45525;BME280;31437;58.350;13.828;2022-07-29T13:09:23;100342.81;;;22.00;94.03
45525;BME280;31437;58.350;13.828;2022-07-29T13:11:49;100340.47;;;21.97;92.41
45525;BME280;31437;58.350;13.828;2022-07-29T13:14:32;100342.97;;;21.99;92.83